La Grange, MO (63448)

10:31 AM CDT on March 29, 2017 (GMT -0500)
5 miles west of La Grange adjacent to a 5 acre lake. | | Change Station

Elev 623 ft 40.05 °N, 91.60 °W | Updated 3 seconds ago

Rain
Rain
44.2 °F
Feels Like 40 °F
N
7.4
Wind Variable Wind from East
Gusts 9.8 mph

Today
High -- | Low -- °F
--% Chance of Precip.
Yesterday
High -- | Low -- °F
Precip. -- in
Pressure 30.03 in
Visibility 1.8 miles
Clouds Mostly Cloudy 5500 ft
Overcast 7500 ft
Windchill 40 °F
Dew Point 44 °F
Humidity 99%
Rainfall 0.30 in
Snow Depth Not available.
6:54 AM 7:27 PM
Waxing Crescent, 3% visible
SPECI KUIN 291527Z AUTO 08020G26KT 1 3/4SM VCTS RA BR BKN055 OVC075 07/06 A3003 RMK AO2 PK WND 08026/1526 WSHFT 1455 LTG DSNT NE-S TSB06E21 PRESFR P0015 T00670061
Pressure 30.03 in
Visibility 1.8 miles
Clouds Mostly Cloudy 5500 ft
Overcast 7500 ft
Windchill 40 °F
Dew Point 44 °F
Humidity 99%
Rainfall 0.30 in
Snow Depth Not available.
6:54 AM 7:27 PM
Waxing Crescent, 3% visible
SPECI KUIN 291527Z AUTO 08020G26KT 1 3/4SM VCTS RA BR BKN055 OVC075 07/06 A3003 RMK AO2 PK WND 08026/1526 WSHFT 1455 LTG DSNT NE-S TSB06E21 PRESFR P0015 T00670061

Get Severe Weather Alerts

Thanks for signing up!

Be on the lookout for a verification email in your inbox.

You'll start receiving the daily forecast at 8 AM.

×

10-Day Weather Forecast

Almanac

Astronomy

Mar. 29, 2017 Rise Set
Actual Time
Civil Twilight
Nautical Twilight
Astronomical Twilight
Moon
Length of Visible Light
Length of Day
Tomorrow will be .
, % of the Moon is Illuminated

Today's Extremes

State Highs State Lows

Community

WunderPhotos

Upload Photos

1,962,540 photos uploaded!

WunderBlog® & News

Nearby

Air Quality

  Air Quality AQ Index Pollutant
Not available.

Snow Depth

Station Depth Elevation

Earthquake Activity

City Distance Mag. Time & Date
Minimum magnitude displayed is 2.5.

Earthquake Activity

City Distance Mag. Time & Date
Minimum magnitude displayed is 2.5.

Coastal Water Temperatures

Place Temperature

Stations

Nearby Weather Stations

Station Location Temp. Windchill Dew Point Humidity Wind Precip. Elev Updated Type
                   

Watches & Warnings

There are currently no watches in effect.